sensor_id;sensor_type;location;lat;lon;timestamp;P1;durP1;ratioP1;P2;durP2;ratioP2
69627;SDS011;56850;51.984;5.088;2022-09-20T00:01:09;6.03;;;1.83;;
69627;SDS011;56850;51.984;5.088;2022-09-20T00:03:43;5.80;;;2.00;;
69627;SDS011;56850;51.984;5.088;2022-09-20T00:06:15;4.28;;;1.80;;
69627;SDS011;56850;51.984;5.088;2022-09-20T00:08:45;7.80;;;1.87;;
69627;SDS011;56850;51.984;5.088;2022-09-20T00:11:23;8.00;;;2.33;;
69627;SDS011;56850;51.984;5.088;2022-09-20T00:13:53;7.55;;;2.00;;
69627;SDS011;56850;51.984;5.088;2022-09-20T00:16:25;10.20;;;2.20;;
69627;SDS011;56850;51.984;5.088;2022-09-20T00:18:56;6.05;;;1.70;;
69627;SDS011;56850;51.984;5.088;2022-09-20T00:21:25;6.30;;;2.33;;
69627;SDS011;56850;51.984;5.088;2022-09-20T00:23:54;6.43;;;2.28;;
69627;SDS011;56850;51.984;5.088;2022-09-20T00:26:23;6.45;;;2.22;;
69627;SDS011;56850;51.984;5.088;2022-09-20T00:28:51;5.80;;;2.00;;
69627;SDS011;56850;51.984;5.088;2022-09-20T00:31:18;6.25;;;2.10;;
69627;SDS011;56850;51.984;5.088;2022-09-20T00:33:45;7.17;;;2.33;;
69627;SDS011;56850;51.984;5.088;2022-09-20T00:36:31;7.35;;;2.05;;
69627;SDS011;56850;51.984;5.088;2022-09-20T00:38:59;6.20;;;2.45;;
69627;SDS011;56850;51.984;5.088;2022-09-20T00:41:28;7.10;;;2.28;;
69627;SDS011;56850;51.984;5.088;2022-09-20T00:43:57;5.57;;;2.72;;
69627;SDS011;56850;51.984;5.088;2022-09-20T00:46:34;9.37;;;2.50;;
69627;SDS011;56850;51.984;5.088;2022-09-20T00:49:12;4.35;;;2.50;;
69627;SDS011;56850;51.984;5.088;2022-09-20T00:51:47;6.43;;;2.97;;
69627;SDS011;56850;51.984;5.088;2022-09-20T00:54:17;7.07;;;2.83;;
69627;SDS011;56850;51.984;5.088;2022-09-20T00:56:46;5.60;;;2.60;;
69627;SDS011;56850;51.984;5.088;2022-09-20T00:59:20;7.33;;;2.70;;
69627;SDS011;56850;51.984;5.088;2022-09-20T01:01:57;7.50;;;2.78;;
69627;SDS011;56850;51.984;5.088;2022-09-20T01:04:29;7.78;;;2.60;;
69627;SDS011;56850;51.984;5.088;2022-09-20T01:06:57;6.30;;;2.90;;
69627;SDS011;56850;51.984;5.088;2022-09-20T01:09:27;7.03;;;2.65;;
69627;SDS011;56850;51.984;5.088;2022-09-20T01:11:55;6.47;;;2.73;;
69627;SDS011;56850;51.984;5.088;2022-09-20T01:14:24;5.47;;;2.38;;
69627;SDS011;56850;51.984;5.088;2022-09-20T01:16:52;9.02;;;2.80;;
69627;SDS011;56850;51.984;5.088;2022-09-20T01:19:27;6.03;;;2.50;;
69627;SDS011;56850;51.984;5.088;2022-09-20T01:22:21;5.65;;;2.72;;
69627;SDS011;56850;51.984;5.088;2022-09-20T01:30:19;8.45;;;2.72;;
69627;SDS011;56850;51.984;5.088;2022-09-20T01:33:08;7.85;;;2.22;;
69627;SDS011;56850;51.984;5.088;2022-09-20T01:35:46;7.75;;;2.67;;
69627;SDS011;56850;51.984;5.088;2022-09-20T01:41:00;7.57;;;2.88;;
69627;SDS011;56850;51.984;5.088;2022-09-20T01:46:31;7.05;;;2.33;;
69627;SDS011;56850;51.984;5.088;2022-09-20T01:49:06;6.07;;;2.08;;
69627;SDS011;56850;51.984;5.088;2022-09-20T01:51:59;8.13;;;2.43;;
69627;SDS011;56850;51.984;5.088;2022-09-20T02:12:25;4.50;;;1.80;;
69627;SDS011;56850;51.984;5.088;2022-09-20T02:27:23;5.63;;;2.13;;
69627;SDS011;56850;51.984;5.088;2022-09-20T02:44:03;5.50;;;2.22;;
69627;SDS011;56850;51.984;5.088;2022-09-20T02:52:06;4.15;;;2.47;;
69627;SDS011;56850;51.984;5.088;2022-09-20T02:54:59;5.95;;;2.53;;
69627;SDS011;56850;51.984;5.088;2022-09-20T02:57:43;5.63;;;2.50;;
69627;SDS011;56850;51.984;5.088;2022-09-20T03:00:36;5.70;;;2.65;;
69627;SDS011;56850;51.984;5.088;2022-09-20T03:08:43;8.63;;;2.97;;
69627;SDS011;56850;51.984;5.088;2022-09-20T03:11:34;6.90;;;2.80;;
69627;SDS011;56850;51.984;5.088;2022-09-20T03:14:23;6.57;;;2.60;;
69627;SDS011;56850;51.984;5.088;2022-09-20T03:33:43;10.43;;;2.55;;
69627;SDS011;56850;51.984;5.088;2022-09-20T03:36:34;6.47;;;2.58;;
69627;SDS011;56850;51.984;5.088;2022-09-20T03:44:50;7.57;;;3.40;;
69627;SDS011;56850;51.984;5.088;2022-09-20T03:47:30;8.98;;;3.38;;
69627;SDS011;56850;51.984;5.088;2022-09-20T04:04:48;6.85;;;3.20;;
69627;SDS011;56850;51.984;5.088;2022-09-20T04:11:00;10.30;;;2.88;;
69627;SDS011;56850;51.984;5.088;2022-09-20T04:13:37;7.73;;;2.90;;
69627;SDS011;56850;51.984;5.088;2022-09-20T04:16:19;5.97;;;2.70;;
69627;SDS011;56850;51.984;5.088;2022-09-20T04:22:00;7.90;;;2.92;;
69627;SDS011;56850;51.984;5.088;2022-09-20T04:27:26;6.23;;;2.87;;
69627;SDS011;56850;51.984;5.088;2022-09-20T04:30:21;8.40;;;3.30;;
69627;SDS011;56850;51.984;5.088;2022-09-20T04:38:28;8.82;;;3.33;;
69627;SDS011;56850;51.984;5.088;2022-09-20T04:48:58;9.77;;;3.30;;
69627;SDS011;56850;51.984;5.088;2022-09-20T05:30:48;6.43;;;3.10;;
69627;SDS011;56850;51.984;5.088;2022-09-20T05:33:32;6.07;;;2.92;;
69627;SDS011;56850;51.984;5.088;2022-09-20T05:41:41;5.60;;;2.72;;
69627;SDS011;56850;51.984;5.088;2022-09-20T05:47:30;7.40;;;3.03;;
69627;SDS011;56850;51.984;5.088;2022-09-20T06:01:33;9.25;;;3.25;;
69627;SDS011;56850;51.984;5.088;2022-09-20T06:12:34;7.38;;;3.13;;
69627;SDS011;56850;51.984;5.088;2022-09-20T06:18:12;9.60;;;3.80;;
69627;SDS011;56850;51.984;5.088;2022-09-20T06:23:47;7.72;;;3.30;;
69627;SDS011;56850;51.984;5.088;2022-09-20T06:26:18;8.90;;;3.35;;
69627;SDS011;56850;51.984;5.088;2022-09-20T06:28:53;12.82;;;3.15;;
69627;SDS011;56850;51.984;5.088;2022-09-20T06:31:25;9.57;;;3.40;;
69627;SDS011;56850;51.984;5.088;2022-09-20T06:34:02;6.70;;;3.00;;
69627;SDS011;56850;51.984;5.088;2022-09-20T06:36:36;9.27;;;3.22;;
69627;SDS011;56850;51.984;5.088;2022-09-20T06:42:11;8.43;;;2.63;;
69627;SDS011;56850;51.984;5.088;2022-09-20T06:44:39;7.70;;;2.70;;
69627;SDS011;56850;51.984;5.088;2022-09-20T06:47:09;6.20;;;2.85;;
69627;SDS011;56850;51.984;5.088;2022-09-20T06:49:37;11.10;;;3.00;;
69627;SDS011;56850;51.984;5.088;2022-09-20T06:52:07;11.38;;;3.90;;
69627;SDS011;56850;51.984;5.088;2022-09-20T06:54:37;8.85;;;2.60;;
69627;SDS011;56850;51.984;5.088;2022-09-20T06:57:06;5.83;;;2.77;;
69627;SDS011;56850;51.984;5.088;2022-09-20T06:59:33;8.32;;;2.47;;
69627;SDS011;56850;51.984;5.088;2022-09-20T07:01:59;7.90;;;2.20;;
69627;SDS011;56850;51.984;5.088;2022-09-20T07:04:27;9.88;;;3.72;;
69627;SDS011;56850;51.984;5.088;2022-09-20T07:07:00;8.65;;;2.60;;
69627;SDS011;56850;51.984;5.088;2022-09-20T07:09:34;9.43;;;2.97;;
69627;SDS011;56850;51.984;5.088;2022-09-20T07:12:01;6.22;;;2.60;;
69627;SDS011;56850;51.984;5.088;2022-09-20T07:14:28;4.25;;;2.65;;
69627;SDS011;56850;51.984;5.088;2022-09-20T07:16:55;7.00;;;2.38;;
69627;SDS011;56850;51.984;5.088;2022-09-20T07:19:21;8.27;;;2.63;;
69627;SDS011;56850;51.984;5.088;2022-09-20T07:21:48;8.30;;;2.43;;
69627;SDS011;56850;51.984;5.088;2022-09-20T07:24:15;10.73;;;2.42;;
69627;SDS011;56850;51.984;5.088;2022-09-20T07:26:55;7.00;;;2.47;;
69627;SDS011;56850;51.984;5.088;2022-09-20T07:29:26;9.57;;;2.50;;
69627;SDS011;56850;51.984;5.088;2022-09-20T07:31:56;7.15;;;2.10;;
69627;SDS011;56850;51.984;5.088;2022-09-20T07:34:24;8.73;;;3.13;;
69627;SDS011;56850;51.984;5.088;2022-09-20T07:36:51;9.50;;;2.50;;
69627;SDS011;56850;51.984;5.088;2022-09-20T07:39:18;6.63;;;2.53;;
69627;SDS011;56850;51.984;5.088;2022-09-20T07:41:45;9.93;;;2.47;;
69627;SDS011;56850;51.984;5.088;2022-09-20T07:44:14;9.73;;;2.60;;
69627;SDS011;56850;51.984;5.088;2022-09-20T07:46:48;11.10;;;2.50;;
69627;SDS011;56850;51.984;5.088;2022-09-20T07:49:19;7.38;;;2.15;;
69627;SDS011;56850;51.984;5.088;2022-09-20T07:51:48;6.07;;;1.85;;
69627;SDS011;56850;51.984;5.088;2022-09-20T07:54:15;6.32;;;1.80;;
69627;SDS011;56850;51.984;5.088;2022-09-20T07:56:43;5.20;;;1.45;;
69627;SDS011;56850;51.984;5.088;2022-09-20T07:59:10;6.03;;;2.10;;
69627;SDS011;56850;51.984;5.088;2022-09-20T08:01:41;7.47;;;2.00;;
69627;SDS011;56850;51.984;5.088;2022-09-20T08:04:08;5.97;;;2.13;;
69627;SDS011;56850;51.984;5.088;2022-09-20T08:06:40;8.02;;;1.73;;
69627;SDS011;56850;51.984;5.088;2022-09-20T08:09:09;7.00;;;1.90;;
69627;SDS011;56850;51.984;5.088;2022-09-20T08:11:40;7.63;;;2.10;;
69627;SDS011;56850;51.984;5.088;2022-09-20T08:14:11;9.88;;;2.20;;
69627;SDS011;56850;51.984;5.088;2022-09-20T08:16:41;8.50;;;1.50;;
69627;SDS011;56850;51.984;5.088;2022-09-20T08:19:14;9.75;;;1.88;;
69627;SDS011;56850;51.984;5.088;2022-09-20T08:21:43;6.00;;;1.75;;
69627;SDS011;56850;51.984;5.088;2022-09-20T08:24:10;11.63;;;1.47;;
69627;SDS011;56850;51.984;5.088;2022-09-20T08:26:38;10.32;;;1.67;;
69627;SDS011;56850;51.984;5.088;2022-09-20T08:29:05;5.22;;;1.48;;
69627;SDS011;56850;51.984;5.088;2022-09-20T08:31:33;8.55;;;1.52;;
69627;SDS011;56850;51.984;5.088;2022-09-20T08:34:03;9.93;;;2.03;;
69627;SDS011;56850;51.984;5.088;2022-09-20T08:36:32;7.47;;;1.70;;
69627;SDS011;56850;51.984;5.088;2022-09-20T08:39:02;7.82;;;1.92;;
69627;SDS011;56850;51.984;5.088;2022-09-20T08:41:54;7.45;;;1.98;;
69627;SDS011;56850;51.984;5.088;2022-09-20T08:44:28;5.78;;;1.77;;
69627;SDS011;56850;51.984;5.088;2022-09-20T08:47:03;5.60;;;1.40;;
69627;SDS011;56850;51.984;5.088;2022-09-20T08:49:31;3.77;;;1.40;;
69627;SDS011;56850;51.984;5.088;2022-09-20T08:51:59;8.25;;;2.13;;
69627;SDS011;56850;51.984;5.088;2022-09-20T08:54:29;8.57;;;1.70;;
69627;SDS011;56850;51.984;5.088;2022-09-20T08:57:02;7.00;;;1.73;;
69627;SDS011;56850;51.984;5.088;2022-09-20T08:59:34;6.47;;;1.70;;
69627;SDS011;56850;51.984;5.088;2022-09-20T09:02:01;8.97;;;1.63;;
69627;SDS011;56850;51.984;5.088;2022-09-20T09:04:32;5.28;;;1.90;;
69627;SDS011;56850;51.984;5.088;2022-09-20T09:07:01;7.50;;;1.90;;
69627;SDS011;56850;51.984;5.088;2022-09-20T09:09:29;9.45;;;1.77;;
69627;SDS011;56850;51.984;5.088;2022-09-20T09:12:03;9.10;;;1.70;;
69627;SDS011;56850;51.984;5.088;2022-09-20T09:14:31;4.80;;;1.83;;
69627;SDS011;56850;51.984;5.088;2022-09-20T09:17:26;6.55;;;1.65;;
69627;SDS011;56850;51.984;5.088;2022-09-20T09:19:58;4.63;;;1.55;;
69627;SDS011;56850;51.984;5.088;2022-09-20T09:22:43;7.95;;;1.45;;
69627;SDS011;56850;51.984;5.088;2022-09-20T09:30:37;8.50;;;1.52;;
69627;SDS011;56850;51.984;5.088;2022-09-20T09:36:37;6.45;;;1.45;;
69627;SDS011;56850;51.984;5.088;2022-09-20T09:38:43;3.67;;;1.48;;
69627;SDS011;56850;51.984;5.088;2022-09-20T09:43:45;8.45;;;1.48;;
69627;SDS011;56850;51.984;5.088;2022-09-20T09:46:24;7.97;;;1.88;;
69627;SDS011;56850;51.984;5.088;2022-09-20T09:49:03;5.95;;;1.63;;
69627;SDS011;56850;51.984;5.088;2022-09-20T09:51:36;6.25;;;1.40;;
69627;SDS011;56850;51.984;5.088;2022-09-20T09:54:04;8.70;;;1.33;;
69627;SDS011;56850;51.984;5.088;2022-09-20T09:59:13;4.70;;;1.00;;
69627;SDS011;56850;51.984;5.088;2022-09-20T10:13:25;5.22;;;1.33;;
69627;SDS011;56850;51.984;5.088;2022-09-20T10:18:58;2.90;;;1.30;;
69627;SDS011;56850;51.984;5.088;2022-09-20T10:24:12;4.10;;;1.08;;
69627;SDS011;56850;51.984;5.088;2022-09-20T10:38:02;5.68;;;1.25;;
69627;SDS011;56850;51.984;5.088;2022-09-20T10:44:04;3.95;;;1.10;;
69627;SDS011;56850;51.984;5.088;2022-09-20T10:46:51;4.60;;;1.42;;
69627;SDS011;56850;51.984;5.088;2022-09-20T10:49:26;3.77;;;1.40;;
69627;SDS011;56850;51.984;5.088;2022-09-20T11:06:10;2.28;;;1.50;;
69627;SDS011;56850;51.984;5.088;2022-09-20T11:08:41;3.60;;;1.25;;
69627;SDS011;56850;51.984;5.088;2022-09-20T11:11:10;6.05;;;1.30;;
69627;SDS011;56850;51.984;5.088;2022-09-20T11:16:39;4.27;;;1.33;;
69627;SDS011;56850;51.984;5.088;2022-09-20T11:22:14;2.90;;;1.45;;
69627;SDS011;56850;51.984;5.088;2022-09-20T11:24:54;7.47;;;1.50;;
69627;SDS011;56850;51.984;5.088;2022-09-20T11:27:25;4.50;;;1.23;;
69627;SDS011;56850;51.984;5.088;2022-09-20T11:30:06;4.63;;;1.20;;
69627;SDS011;56850;51.984;5.088;2022-09-20T11:36:00;7.00;;;1.50;;
69627;SDS011;56850;51.984;5.088;2022-09-20T11:41:23;3.75;;;0.90;;
69627;SDS011;56850;51.984;5.088;2022-09-20T11:43:54;2.77;;;1.20;;
69627;SDS011;56850;51.984;5.088;2022-09-20T11:46:34;4.28;;;0.90;;
69627;SDS011;56850;51.984;5.088;2022-09-20T11:49:14;3.67;;;1.30;;
69627;SDS011;56850;51.984;5.088;2022-09-20T11:57:24;8.63;;;1.40;;
69627;SDS011;56850;51.984;5.088;2022-09-20T11:59:53;3.83;;;1.30;;
69627;SDS011;56850;51.984;5.088;2022-09-20T12:02:24;3.72;;;1.30;;
69627;SDS011;56850;51.984;5.088;2022-09-20T12:05:03;3.33;;;1.00;;
69627;SDS011;56850;51.984;5.088;2022-09-20T12:07:35;4.60;;;1.35;;
69627;SDS011;56850;51.984;5.088;2022-09-20T12:10:06;5.13;;;1.08;;
69627;SDS011;56850;51.984;5.088;2022-09-20T12:12:57;5.78;;;1.50;;
69627;SDS011;56850;51.984;5.088;2022-09-20T12:15:29;4.15;;;1.35;;
69627;SDS011;56850;51.984;5.088;2022-09-20T12:18:02;4.40;;;1.30;;
69627;SDS011;56850;51.984;5.088;2022-09-20T12:28:48;4.78;;;1.45;;
69627;SDS011;56850;51.984;5.088;2022-09-20T12:34:00;4.05;;;1.50;;
69627;SDS011;56850;51.984;5.088;2022-09-20T12:36:33;4.15;;;0.90;;
69627;SDS011;56850;51.984;5.088;2022-09-20T12:47:23;3.85;;;1.55;;
69627;SDS011;56850;51.984;5.088;2022-09-20T12:49:59;4.13;;;1.20;;
69627;SDS011;56850;51.984;5.088;2022-09-20T12:52:47;4.55;;;1.33;;
69627;SDS011;56850;51.984;5.088;2022-09-20T12:55:27;9.20;;;1.63;;
69627;SDS011;56850;51.984;5.088;2022-09-20T12:58:05;4.35;;;1.27;;
69627;SDS011;56850;51.984;5.088;2022-09-20T13:08:34;3.75;;;1.38;;
69627;SDS011;56850;51.984;5.088;2022-09-20T13:11:13;7.28;;;1.98;;
69627;SDS011;56850;51.984;5.088;2022-09-20T13:13:50;4.47;;;1.33;;
69627;SDS011;56850;51.984;5.088;2022-09-20T13:16:35;3.25;;;1.35;;
69627;SDS011;56850;51.984;5.088;2022-09-20T13:19:04;5.50;;;1.85;;
69627;SDS011;56850;51.984;5.088;2022-09-20T13:21:55;5.32;;;1.50;;
69627;SDS011;56850;51.984;5.088;2022-09-20T13:24:28;4.57;;;1.70;;
69627;SDS011;56850;51.984;5.088;2022-09-20T13:27:05;4.93;;;1.13;;
69627;SDS011;56850;51.984;5.088;2022-09-20T13:29:40;6.47;;;1.73;;
69627;SDS011;56850;51.984;5.088;2022-09-20T13:37:33;7.97;;;1.33;;
69627;SDS011;56850;51.984;5.088;2022-09-20T13:40:01;5.80;;;1.30;;
69627;SDS011;56850;51.984;5.088;2022-09-20T13:42:30;4.57;;;1.30;;
69627;SDS011;56850;51.984;5.088;2022-09-20T13:45:01;4.63;;;1.60;;
69627;SDS011;56850;51.984;5.088;2022-09-20T13:47:30;2.67;;;0.88;;
69627;SDS011;56850;51.984;5.088;2022-09-20T13:50:01;2.65;;;1.13;;
69627;SDS011;56850;51.984;5.088;2022-09-20T13:52:58;2.03;;;1.13;;
69627;SDS011;56850;51.984;5.088;2022-09-20T13:55:28;3.30;;;1.30;;
69627;SDS011;56850;51.984;5.088;2022-09-20T14:00:59;2.75;;;1.23;;
69627;SDS011;56850;51.984;5.088;2022-09-20T14:03:31;4.38;;;1.20;;
69627;SDS011;56850;51.984;5.088;2022-09-20T14:06:00;4.38;;;1.20;;
69627;SDS011;56850;51.984;5.088;2022-09-20T14:08:36;4.10;;;1.40;;
69627;SDS011;56850;51.984;5.088;2022-09-20T14:13:49;6.97;;;1.65;;
69627;SDS011;56850;51.984;5.088;2022-09-20T14:16:18;3.17;;;1.30;;
69627;SDS011;56850;51.984;5.088;2022-09-20T14:18:47;3.83;;;1.27;;
69627;SDS011;56850;51.984;5.088;2022-09-20T14:21:25;3.20;;;1.40;;
69627;SDS011;56850;51.984;5.088;2022-09-20T14:26:31;3.10;;;1.00;;
69627;SDS011;56850;51.984;5.088;2022-09-20T14:35:00;2.65;;;1.10;;
69627;SDS011;56850;51.984;5.088;2022-09-20T14:37:40;3.03;;;1.10;;
69627;SDS011;56850;51.984;5.088;2022-09-20T14:40:17;4.57;;;1.30;;
69627;SDS011;56850;51.984;5.088;2022-09-20T14:42:45;2.25;;;0.90;;
69627;SDS011;56850;51.984;5.088;2022-09-20T14:48:03;3.58;;;1.23;;
69627;SDS011;56850;51.984;5.088;2022-09-20T14:50:40;1.95;;;1.00;;
69627;SDS011;56850;51.984;5.088;2022-09-20T15:01:40;4.60;;;1.20;;
69627;SDS011;56850;51.984;5.088;2022-09-20T15:04:22;3.88;;;1.40;;
69627;SDS011;56850;51.984;5.088;2022-09-20T15:06:51;8.45;;;1.30;;
69627;SDS011;56850;51.984;5.088;2022-09-20T15:09:19;6.18;;;1.40;;
69627;SDS011;56850;51.984;5.088;2022-09-20T15:12:00;3.88;;;1.40;;
69627;SDS011;56850;51.984;5.088;2022-09-20T15:14:30;5.10;;;1.20;;
69627;SDS011;56850;51.984;5.088;2022-09-20T15:17:03;5.28;;;1.48;;
69627;SDS011;56850;51.984;5.088;2022-09-20T15:19:30;2.70;;;1.30;;
69627;SDS011;56850;51.984;5.088;2022-09-20T15:21:57;4.60;;;1.27;;
69627;SDS011;56850;51.984;5.088;2022-09-20T15:24:24;4.07;;;1.70;;
69627;SDS011;56850;51.984;5.088;2022-09-20T15:26:52;6.22;;;2.28;;
69627;SDS011;56850;51.984;5.088;2022-09-20T15:29:19;4.10;;;1.55;;
69627;SDS011;56850;51.984;5.088;2022-09-20T15:31:47;6.22;;;1.65;;
69627;SDS011;56850;51.984;5.088;2022-09-20T15:34:14;6.53;;;1.42;;
69627;SDS011;56850;51.984;5.088;2022-09-20T15:36:41;2.28;;;1.00;;
69627;SDS011;56850;51.984;5.088;2022-09-20T15:39:08;5.10;;;1.40;;
69627;SDS011;56850;51.984;5.088;2022-09-20T15:41:36;4.78;;;1.50;;
69627;SDS011;56850;51.984;5.088;2022-09-20T15:44:03;3.88;;;1.30;;
69627;SDS011;56850;51.984;5.088;2022-09-20T15:46:34;5.38;;;1.55;;
69627;SDS011;56850;51.984;5.088;2022-09-20T15:49:01;4.35;;;1.30;;
69627;SDS011;56850;51.984;5.088;2022-09-20T15:51:30;3.80;;;1.13;;
69627;SDS011;56850;51.984;5.088;2022-09-20T15:53:59;7.45;;;1.50;;
69627;SDS011;56850;51.984;5.088;2022-09-20T15:56:30;6.07;;;1.73;;
69627;SDS011;56850;51.984;5.088;2022-09-20T15:59:00;5.68;;;1.35;;
69627;SDS011;56850;51.984;5.088;2022-09-20T16:01:34;8.00;;;1.67;;
69627;SDS011;56850;51.984;5.088;2022-09-20T16:04:04;8.80;;;1.60;;
69627;SDS011;56850;51.984;5.088;2022-09-20T16:06:33;4.82;;;1.77;;
69627;SDS011;56850;51.984;5.088;2022-09-20T16:09:01;5.75;;;1.55;;
69627;SDS011;56850;51.984;5.088;2022-09-20T16:11:28;6.13;;;1.67;;
69627;SDS011;56850;51.984;5.088;2022-09-20T16:13:56;7.60;;;1.80;;
69627;SDS011;56850;51.984;5.088;2022-09-20T16:16:26;3.92;;;1.15;;
69627;SDS011;56850;51.984;5.088;2022-09-20T16:18:54;5.00;;;1.10;;
69627;SDS011;56850;51.984;5.088;2022-09-20T16:21:40;6.32;;;1.60;;
69627;SDS011;56850;51.984;5.088;2022-09-20T16:24:08;3.63;;;1.40;;
69627;SDS011;56850;51.984;5.088;2022-09-20T16:26:38;7.60;;;1.50;;
69627;SDS011;56850;51.984;5.088;2022-09-20T16:29:05;8.63;;;1.85;;
69627;SDS011;56850;51.984;5.088;2022-09-20T16:31:39;5.25;;;1.70;;
69627;SDS011;56850;51.984;5.088;2022-09-20T16:34:12;5.47;;;1.50;;
69627;SDS011;56850;51.984;5.088;2022-09-20T16:36:44;6.00;;;1.40;;
69627;SDS011;56850;51.984;5.088;2022-09-20T16:39:16;4.13;;;1.20;;
69627;SDS011;56850;51.984;5.088;2022-09-20T16:41:44;5.93;;;1.53;;
69627;SDS011;56850;51.984;5.088;2022-09-20T16:44:13;7.35;;;2.05;;
69627;SDS011;56850;51.984;5.088;2022-09-20T16:46:41;3.22;;;1.30;;
69627;SDS011;56850;51.984;5.088;2022-09-20T16:49:09;5.60;;;1.50;;
69627;SDS011;56850;51.984;5.088;2022-09-20T16:51:38;6.35;;;1.88;;
69627;SDS011;56850;51.984;5.088;2022-09-20T16:54:07;4.85;;;1.60;;
69627;SDS011;56850;51.984;5.088;2022-09-20T16:56:40;6.90;;;1.52;;
69627;SDS011;56850;51.984;5.088;2022-09-20T16:59:17;4.55;;;1.50;;
69627;SDS011;56850;51.984;5.088;2022-09-20T17:01:48;4.68;;;1.80;;
69627;SDS011;56850;51.984;5.088;2022-09-20T17:04:16;4.20;;;1.00;;
69627;SDS011;56850;51.984;5.088;2022-09-20T17:06:44;6.65;;;1.70;;
69627;SDS011;56850;51.984;5.088;2022-09-20T17:09:12;6.30;;;1.80;;
69627;SDS011;56850;51.984;5.088;2022-09-20T17:11:42;4.28;;;1.50;;
69627;SDS011;56850;51.984;5.088;2022-09-20T17:14:15;4.53;;;1.58;;
69627;SDS011;56850;51.984;5.088;2022-09-20T17:16:44;4.90;;;1.47;;
69627;SDS011;56850;51.984;5.088;2022-09-20T17:19:17;7.10;;;1.48;;
69627;SDS011;56850;51.984;5.088;2022-09-20T17:21:46;3.80;;;1.50;;
69627;SDS011;56850;51.984;5.088;2022-09-20T17:24:15;5.97;;;1.55;;
69627;SDS011;56850;51.984;5.088;2022-09-20T17:26:43;5.95;;;1.52;;
69627;SDS011;56850;51.984;5.088;2022-09-20T17:29:12;5.83;;;1.20;;
69627;SDS011;56850;51.984;5.088;2022-09-20T17:31:42;7.80;;;1.30;;
69627;SDS011;56850;51.984;5.088;2022-09-20T17:34:17;7.15;;;1.58;;
69627;SDS011;56850;51.984;5.088;2022-09-20T17:36:47;8.27;;;1.55;;
69627;SDS011;56850;51.984;5.088;2022-09-20T17:39:15;4.57;;;1.70;;
69627;SDS011;56850;51.984;5.088;2022-09-20T17:41:43;6.03;;;1.20;;
69627;SDS011;56850;51.984;5.088;2022-09-20T17:44:15;5.65;;;1.88;;
69627;SDS011;56850;51.984;5.088;2022-09-20T17:46:43;8.88;;;1.75;;
69627;SDS011;56850;51.984;5.088;2022-09-20T17:49:12;5.40;;;1.42;;
69627;SDS011;56850;51.984;5.088;2022-09-20T17:51:42;4.80;;;1.55;;
69627;SDS011;56850;51.984;5.088;2022-09-20T17:54:10;5.87;;;1.43;;
69627;SDS011;56850;51.984;5.088;2022-09-20T17:56:45;6.50;;;1.80;;
69627;SDS011;56850;51.984;5.088;2022-09-20T17:59:16;6.47;;;1.92;;
69627;SDS011;56850;51.984;5.088;2022-09-20T18:01:46;5.20;;;1.60;;
69627;SDS011;56850;51.984;5.088;2022-09-20T18:04:15;7.72;;;1.60;;
69627;SDS011;56850;51.984;5.088;2022-09-20T18:06:49;4.50;;;1.60;;
69627;SDS011;56850;51.984;5.088;2022-09-20T18:09:18;3.67;;;1.55;;
69627;SDS011;56850;51.984;5.088;2022-09-20T18:11:48;6.43;;;2.00;;
69627;SDS011;56850;51.984;5.088;2022-09-20T18:14:22;7.40;;;2.00;;
69627;SDS011;56850;51.984;5.088;2022-09-20T18:16:51;6.95;;;2.20;;
69627;SDS011;56850;51.984;5.088;2022-09-20T18:19:20;7.60;;;1.80;;
69627;SDS011;56850;51.984;5.088;2022-09-20T18:21:48;4.55;;;2.33;;
69627;SDS011;56850;51.984;5.088;2022-09-20T18:24:15;10.50;;;2.35;;
69627;SDS011;56850;51.984;5.088;2022-09-20T18:26:42;5.63;;;2.20;;
69627;SDS011;56850;51.984;5.088;2022-09-20T18:29:14;8.98;;;2.30;;
69627;SDS011;56850;51.984;5.088;2022-09-20T18:31:47;8.77;;;2.30;;
69627;SDS011;56850;51.984;5.088;2022-09-20T18:34:16;6.85;;;1.85;;
69627;SDS011;56850;51.984;5.088;2022-09-20T18:36:52;7.60;;;2.17;;
69627;SDS011;56850;51.984;5.088;2022-09-20T18:39:25;6.32;;;2.10;;
69627;SDS011;56850;51.984;5.088;2022-09-20T18:41:53;4.93;;;1.75;;
69627;SDS011;56850;51.984;5.088;2022-09-20T18:44:21;6.27;;;2.00;;
69627;SDS011;56850;51.984;5.088;2022-09-20T18:46:49;5.65;;;1.92;;
69627;SDS011;56850;51.984;5.088;2022-09-20T18:49:18;6.80;;;2.45;;
69627;SDS011;56850;51.984;5.088;2022-09-20T18:51:47;4.95;;;2.10;;
69627;SDS011;56850;51.984;5.088;2022-09-20T18:54:14;4.40;;;1.83;;
69627;SDS011;56850;51.984;5.088;2022-09-20T18:56:42;5.83;;;1.90;;
69627;SDS011;56850;51.984;5.088;2022-09-20T18:59:18;5.65;;;2.03;;
69627;SDS011;56850;51.984;5.088;2022-09-20T19:01:57;5.70;;;1.98;;
69627;SDS011;56850;51.984;5.088;2022-09-20T19:04:50;8.55;;;1.70;;
69627;SDS011;56850;51.984;5.088;2022-09-20T19:07:50;6.50;;;1.65;;
69627;SDS011;56850;51.984;5.088;2022-09-20T19:10:39;3.70;;;1.50;;
69627;SDS011;56850;51.984;5.088;2022-09-20T19:13:24;5.85;;;1.60;;
69627;SDS011;56850;51.984;5.088;2022-09-20T19:19:01;6.82;;;1.50;;
69627;SDS011;56850;51.984;5.088;2022-09-20T19:24:32;6.20;;;2.20;;
69627;SDS011;56850;51.984;5.088;2022-09-20T19:27:11;9.63;;;1.95;;
69627;SDS011;56850;51.984;5.088;2022-09-20T19:29:39;5.93;;;2.05;;
69627;SDS011;56850;51.984;5.088;2022-09-20T19:32:10;5.57;;;1.92;;
69627;SDS011;56850;51.984;5.088;2022-09-20T19:34:42;5.82;;;2.10;;
69627;SDS011;56850;51.984;5.088;2022-09-20T19:37:16;6.07;;;2.20;;
69627;SDS011;56850;51.984;5.088;2022-09-20T19:40:09;6.28;;;2.30;;
69627;SDS011;56850;51.984;5.088;2022-09-20T19:48:38;8.00;;;1.95;;
69627;SDS011;56850;51.984;5.088;2022-09-20T19:51:12;6.47;;;1.90;;
69627;SDS011;56850;51.984;5.088;2022-09-20T19:53:40;8.80;;;2.00;;
69627;SDS011;56850;51.984;5.088;2022-09-20T19:56:20;7.70;;;1.98;;
69627;SDS011;56850;51.984;5.088;2022-09-20T19:58:53;5.22;;;2.05;;
69627;SDS011;56850;51.984;5.088;2022-09-20T20:01:22;5.72;;;2.05;;
69627;SDS011;56850;51.984;5.088;2022-09-20T20:03:51;4.63;;;2.20;;
69627;SDS011;56850;51.984;5.088;2022-09-20T20:06:25;8.55;;;1.95;;
69627;SDS011;56850;51.984;5.088;2022-09-20T20:12:08;6.05;;;2.40;;
69627;SDS011;56850;51.984;5.088;2022-09-20T20:17:19;8.00;;;2.10;;
69627;SDS011;56850;51.984;5.088;2022-09-20T20:22:58;4.25;;;2.20;;
69627;SDS011;56850;51.984;5.088;2022-09-20T20:28:01;7.68;;;1.80;;
69627;SDS011;56850;51.984;5.088;2022-09-20T20:30:28;8.47;;;2.10;;
69627;SDS011;56850;51.984;5.088;2022-09-20T20:32:55;6.55;;;2.22;;
69627;SDS011;56850;51.984;5.088;2022-09-20T20:35:25;4.82;;;1.92;;
69627;SDS011;56850;51.984;5.088;2022-09-20T20:37:53;7.03;;;2.38;;
69627;SDS011;56850;51.984;5.088;2022-09-20T20:40:20;5.72;;;1.90;;
69627;SDS011;56850;51.984;5.088;2022-09-20T20:42:47;5.30;;;1.80;;
69627;SDS011;56850;51.984;5.088;2022-09-20T20:45:14;8.35;;;1.98;;
69627;SDS011;56850;51.984;5.088;2022-09-20T20:47:41;5.93;;;2.15;;
69627;SDS011;56850;51.984;5.088;2022-09-20T20:50:09;6.93;;;2.03;;
69627;SDS011;56850;51.984;5.088;2022-09-20T20:52:41;7.30;;;2.67;;
69627;SDS011;56850;51.984;5.088;2022-09-20T20:55:08;5.20;;;2.00;;
69627;SDS011;56850;51.984;5.088;2022-09-20T20:57:35;8.25;;;2.13;;
69627;SDS011;56850;51.984;5.088;2022-09-20T21:00:03;6.60;;;2.20;;
69627;SDS011;56850;51.984;5.088;2022-09-20T21:02:30;4.10;;;1.75;;
69627;SDS011;56850;51.984;5.088;2022-09-20T21:04:57;5.10;;;1.88;;
69627;SDS011;56850;51.984;5.088;2022-09-20T21:07:24;5.77;;;1.90;;
69627;SDS011;56850;51.984;5.088;2022-09-20T21:09:51;7.43;;;1.80;;
69627;SDS011;56850;51.984;5.088;2022-09-20T21:12:18;5.63;;;2.40;;
69627;SDS011;56850;51.984;5.088;2022-09-20T21:14:46;4.75;;;2.00;;
69627;SDS011;56850;51.984;5.088;2022-09-20T21:17:13;6.45;;;2.00;;
69627;SDS011;56850;51.984;5.088;2022-09-20T21:19:40;5.43;;;2.10;;
69627;SDS011;56850;51.984;5.088;2022-09-20T21:22:07;5.97;;;2.13;;